Time;durP1;ratioP1;P1;durP2;ratioP2;P2;SDS_P1;SDS_P2;PMS_P1;PMS_P2;Temp;Humidity;BMP_temperature;BMP_pressure;BME280_temperature;BME280_humidity;BME280_pressure;Samples;Min_cycle;Max_cycle;Signal;HPM_P1;HPM_P2
2023/09/26 00:01:09;;;;;;;3.42;2.60;;;;;;;;;;5078215;28;20476;-57
2023/09/26 00:03:38;;;;;;;5.30;2.60;;;;;;;;;;5080968;28;20457;-57
2023/09/26 00:06:05;;;;;;;4.93;2.50;;;;;;;;;;5081568;28;20440;-59
2023/09/26 00:08:32;;;;;;;4.13;2.85;;;;;;;;;;5079623;28;20916;-55
2023/09/26 00:10:59;;;;;;;3.28;2.38;;;;;;;;;;5079623;28;20924;-57
2023/09/26 00:13:26;;;;;;;5.63;2.67;;;;;;;;;;5081388;28;20455;-60
2023/09/26 00:15:53;;;;;;;3.30;2.40;;;;;;;;;;5080293;28;20411;-60
2023/09/26 00:18:20;;;;;;;5.70;2.63;;;;;;;;;;5079356;28;21002;-57
2023/09/26 00:20:48;;;;;;;3.92;2.40;;;;;;;;;;5080537;28;20413;-58
2023/09/26 00:23:15;;;;;;;4.10;2.50;;;;;;;;;;5078247;28;20410;-57
2023/09/26 00:25:44;;;;;;;5.20;2.55;;;;;;;;;;5082450;28;20817;-59
2023/09/26 00:28:12;;;;;;;4.03;2.60;;;;;;;;;;5083147;28;20500;-57
2023/09/26 00:30:41;;;;;;;4.07;2.30;;;;;;;;;;5078869;28;20924;-58
2023/09/26 00:33:08;;;;;;;3.85;2.50;;;;;;;;;;5083003;28;20535;-57
2023/09/26 00:35:35;;;;;;;4.13;2.42;;;;;;;;;;5082641;28;20402;-59
2023/09/26 00:38:04;;;;;;;3.58;2.35;;;;;;;;;;5080944;28;20411;-59
2023/09/26 00:40:31;;;;;;;3.95;2.55;;;;;;;;;;5081686;28;20426;-60
2023/09/26 00:42:59;;;;;;;3.50;2.50;;;;;;;;;;5083119;28;20407;-57
2023/09/26 00:45:27;;;;;;;4.00;2.50;;;;;;;;;;5082967;28;20450;-57
2023/09/26 00:47:54;;;;;;;3.10;2.20;;;;;;;;;;5083141;28;20407;-57
2023/09/26 00:50:22;;;;;;;4.82;2.53;;;;;;;;;;5084069;28;20480;-58
2023/09/26 00:52:51;;;;;;;6.10;2.30;;;;;;;;;;5084980;28;20924;-59
2023/09/26 00:55:20;;;;;;;6.05;2.85;;;;;;;;;;5086222;28;20416;-59
2023/09/26 00:57:48;;;;;;;5.32;2.90;;;;;;;;;;5081877;28;20884;-57
2023/09/26 01:00:16;;;;;;;3.42;2.60;;;;;;;;;;5084060;28;20448;-59
2023/09/26 01:02:43;;;;;;;3.92;2.67;;;;;;;;;;5085201;28;20413;-57
2023/09/26 01:05:10;;;;;;;4.07;2.70;;;;;;;;;;5082876;28;20408;-58
2023/09/26 01:07:37;;;;;;;6.80;2.60;;;;;;;;;;5083167;28;20423;-58
2023/09/26 01:10:05;;;;;;;4.38;2.58;;;;;;;;;;5085073;28;20488;-59
2023/09/26 01:12:34;;;;;;;3.30;2.42;;;;;;;;;;5082495;28;20461;-58
2023/09/26 01:15:01;;;;;;;4.15;2.72;;;;;;;;;;5082117;28;20411;-58
2023/09/26 01:17:31;;;;;;;4.70;2.60;;;;;;;;;;5083933;28;20883;-57
2023/09/26 01:19:58;;;;;;;3.55;2.70;;;;;;;;;;5084971;28;20907;-57
2023/09/26 01:22:27;;;;;;;4.88;2.90;;;;;;;;;;5083345;28;20472;-59
2023/09/26 01:24:57;;;;;;;5.25;2.70;;;;;;;;;;5087291;28;20935;-57
2023/09/26 01:27:24;;;;;;;4.90;2.90;;;;;;;;;;5087217;28;20410;-59
2023/09/26 01:29:52;;;;;;;3.67;2.58;;;;;;;;;;5083438;28;20880;-59
2023/09/26 01:32:19;;;;;;;4.77;2.93;;;;;;;;;;5081884;28;20510;-58
2023/09/26 01:34:46;;;;;;;3.92;2.70;;;;;;;;;;5082915;28;20408;-58
2023/09/26 01:37:13;;;;;;;4.50;3.10;;;;;;;;;;5084571;28;20406;-57
2023/09/26 01:39:40;;;;;;;3.10;2.72;;;;;;;;;;5082447;28;20983;-58
2023/09/26 01:42:09;;;;;;;4.72;3.20;;;;;;;;;;5081913;28;20419;-58
2023/09/26 01:44:36;;;;;;;4.03;2.97;;;;;;;;;;5071754;28;20399;-59
2023/09/26 01:47:03;;;;;;;4.50;2.85;;;;;;;;;;5073160;28;20886;-58
2023/09/26 01:49:31;;;;;;;3.60;2.97;;;;;;;;;;5072709;28;20456;-60
2023/09/26 01:51:58;;;;;;;5.00;3.17;;;;;;;;;;5073894;28;20492;-60
2023/09/26 01:54:25;;;;;;;4.20;2.85;;;;;;;;;;5083542;28;20478;-59
2023/09/26 01:56:52;;;;;;;4.47;3.00;;;;;;;;;;5084625;28;20548;-61
2023/09/26 01:59:20;;;;;;;5.20;3.15;;;;;;;;;;5084479;28;20449;-60
2023/09/26 02:01:47;;;;;;;4.55;3.50;;;;;;;;;;5073495;28;20907;-60
2023/09/26 02:04:15;;;;;;;4.78;3.08;;;;;;;;;;5073063;28;20465;-60
2023/09/26 02:06:42;;;;;;;4.20;2.88;;;;;;;;;;5072914;28;20411;-60
2023/09/26 02:09:09;;;;;;;4.67;3.27;;;;;;;;;;5072610;28;20404;-60
2023/09/26 02:11:36;;;;;;;5.05;3.08;;;;;;;;;;5072572;28;20465;-60
2023/09/26 02:14:02;;;;;;;5.28;3.17;;;;;;;;;;5072400;28;20897;-60
2023/09/26 02:16:31;;;;;;;4.75;2.80;;;;;;;;;;5075906;28;20469;-58
2023/09/26 02:18:58;;;;;;;5.45;3.20;;;;;;;;;;5082071;28;20416;-58
2023/09/26 02:21:25;;;;;;;4.13;3.15;;;;;;;;;;5082783;28;20409;-58
2023/09/26 02:23:52;;;;;;;4.43;3.20;;;;;;;;;;5082135;28;20410;-60
2023/09/26 02:26:19;;;;;;;3.97;3.17;;;;;;;;;;5084569;28;20826;-60
2023/09/26 02:28:46;;;;;;;5.75;3.55;;;;;;;;;;5081486;28;21068;-59
2023/09/26 02:31:15;;;;;;;4.10;3.35;;;;;;;;;;5084150;28;20406;-58
2023/09/26 02:33:45;;;;;;;4.35;3.20;;;;;;;;;;5082804;28;20433;-58
2023/09/26 02:36:12;;;;;;;3.70;3.30;;;;;;;;;;5077990;28;20496;-58
2023/09/26 02:38:39;;;;;;;4.18;3.25;;;;;;;;;;5082012;28;20519;-58
2023/09/26 02:41:06;;;;;;;4.17;3.23;;;;;;;;;;5083025;28;20422;-57
2023/09/26 02:43:33;;;;;;;5.45;3.42;;;;;;;;;;5081136;28;20407;-58
2023/09/26 02:46:00;;;;;;;4.40;3.50;;;;;;;;;;5084597;28;20414;-58
2023/09/26 02:48:27;;;;;;;5.80;3.60;;;;;;;;;;5080736;28;20403;-56
2023/09/26 02:51:03;;;;;;;4.70;3.50;;;;;;;;;;5080681;28;20523;-57
2023/09/26 02:53:30;;;;;;;4.72;3.60;;;;;;;;;;5080944;28;20840;-58
2023/09/26 02:55:57;;;;;;;5.73;3.43;;;;;;;;;;5089678;28;20446;-58
2023/09/26 02:58:24;;;;;;;5.40;3.85;;;;;;;;;;5083099;28;20410;-57
2023/09/26 03:00:52;;;;;;;4.35;3.50;;;;;;;;;;5081649;28;20435;-59
2023/09/26 03:03:19;;;;;;;4.13;3.45;;;;;;;;;;5079502;28;20506;-56
2023/09/26 03:05:49;;;;;;;5.50;4.00;;;;;;;;;;5081920;28;20409;-60
2023/09/26 03:08:18;;;;;;;6.07;3.60;;;;;;;;;;5082703;28;20517;-59
2023/09/26 03:10:45;;;;;;;4.18;3.20;;;;;;;;;;5081313;28;20410;-59
2023/09/26 03:13:12;;;;;;;4.68;3.67;;;;;;;;;;5080206;28;20789;-60
2023/09/26 03:15:39;;;;;;;4.38;3.50;;;;;;;;;;5081008;28;20422;-60
2023/09/26 03:18:07;;;;;;;8.20;4.30;;;;;;;;;;5085466;28;20474;-60
2023/09/26 03:20:38;;;;;;;7.35;4.57;;;;;;;;;;5088571;28;20422;-60
2023/09/26 03:23:05;;;;;;;6.53;4.40;;;;;;;;;;5083119;28;20872;-58
2023/09/26 03:25:34;;;;;;;6.75;4.43;;;;;;;;;;5088941;28;20402;-60
2023/09/26 03:28:02;;;;;;;6.47;4.43;;;;;;;;;;5084170;28;20454;-58
2023/09/26 03:30:29;;;;;;;6.80;4.15;;;;;;;;;;5084227;28;20410;-61
2023/09/26 03:32:56;;;;;;;5.80;4.13;;;;;;;;;;5082343;28;20414;-59
2023/09/26 03:35:23;;;;;;;4.90;3.90;;;;;;;;;;5081590;28;20417;-59
2023/09/26 03:37:50;;;;;;;6.43;4.30;;;;;;;;;;5079377;28;20910;-61
2023/09/26 03:40:17;;;;;;;5.30;4.00;;;;;;;;;;5079536;28;20475;-56
2023/09/26 03:42:45;;;;;;;5.63;4.15;;;;;;;;;;5081992;28;20471;-58
2023/09/26 03:45:12;;;;;;;6.63;4.70;;;;;;;;;;5080256;28;20477;-59
2023/09/26 03:47:39;;;;;;;5.70;4.57;;;;;;;;;;5079580;28;20465;-58
2023/09/26 03:50:07;;;;;;;5.47;4.45;;;;;;;;;;5079490;28;20820;-60
2023/09/26 03:52:34;;;;;;;5.00;4.00;;;;;;;;;;5079947;28;20893;-57
2023/09/26 03:55:02;;;;;;;5.53;3.80;;;;;;;;;;5085216;28;20444;-60
2023/09/26 03:57:31;;;;;;;5.43;3.90;;;;;;;;;;5081299;28;20967;-59
2023/09/26 03:59:59;;;;;;;5.07;4.10;;;;;;;;;;5081967;28;20432;-58
2023/09/26 04:02:26;;;;;;;6.35;4.00;;;;;;;;;;5079084;28;20469;-55
2023/09/26 04:04:53;;;;;;;6.55;4.43;;;;;;;;;;5079194;28;20411;-56
2023/09/26 04:07:20;;;;;;;5.40;4.20;;;;;;;;;;5081465;28;20460;-57
2023/09/26 04:09:47;;;;;;;5.80;3.92;;;;;;;;;;5080965;28;20406;-57
2023/09/26 04:12:14;;;;;;;5.60;4.25;;;;;;;;;;5079212;28;20465;-58
2023/09/26 04:14:41;;;;;;;6.82;4.18;;;;;;;;;;5079673;28;20459;-59
2023/09/26 04:17:09;;;;;;;7.95;4.63;;;;;;;;;;5081634;28;20406;-58
2023/09/26 04:19:36;;;;;;;8.00;4.83;;;;;;;;;;5078775;28;20505;-58
2023/09/26 04:22:04;;;;;;;6.38;4.70;;;;;;;;;;5079290;28;20813;-58
2023/09/26 04:24:32;;;;;;;7.30;4.90;;;;;;;;;;5082496;28;20413;-59
2023/09/26 04:26:59;;;;;;;6.70;4.68;;;;;;;;;;5081853;28;20419;-57
2023/09/26 04:29:26;;;;;;;5.13;4.20;;;;;;;;;;5081388;28;20409;-60
2023/09/26 04:31:53;;;;;;;6.40;4.40;;;;;;;;;;5079738;28;20411;-58
2023/09/26 04:34:21;;;;;;;8.50;4.57;;;;;;;;;;5078823;28;20411;-59
2023/09/26 04:36:48;;;;;;;7.43;4.40;;;;;;;;;;5069419;28;20770;-59
2023/09/26 04:39:16;;;;;;;6.43;4.67;;;;;;;;;;5069800;28;20407;-59
2023/09/26 04:41:45;;;;;;;5.38;4.47;;;;;;;;;;5070141;28;20420;-59
2023/09/26 04:44:12;;;;;;;7.18;4.38;;;;;;;;;;5069720;28;20411;-60
2023/09/26 04:46:39;;;;;;;7.88;4.53;;;;;;;;;;5069876;28;20415;-58
2023/09/26 04:49:06;;;;;;;6.40;4.88;;;;;;;;;;5077837;28;20754;-60
2023/09/26 04:51:34;;;;;;;7.30;4.55;;;;;;;;;;5081605;28;20402;-56
2023/09/26 04:54:03;;;;;;;7.00;4.45;;;;;;;;;;5074278;28;20463;-60
2023/09/26 04:56:31;;;;;;;6.35;4.65;;;;;;;;;;5085290;28;20824;-60
2023/09/26 04:58:58;;;;;;;6.60;4.40;;;;;;;;;;5078806;28;20956;-59
2023/09/26 05:01:26;;;;;;;6.53;4.25;;;;;;;;;;5079795;28;20427;-58
2023/09/26 05:03:53;;;;;;;6.35;4.70;;;;;;;;;;5081397;28;20796;-58
2023/09/26 05:06:20;;;;;;;6.50;4.57;;;;;;;;;;5079651;28;20408;-61
2023/09/26 05:08:50;;;;;;;8.20;4.80;;;;;;;;;;5078527;28;20824;-59
2023/09/26 05:11:17;;;;;;;7.32;4.50;;;;;;;;;;5079347;28;20407;-58
2023/09/26 05:13:44;;;;;;;5.93;4.65;;;;;;;;;;5078935;28;20407;-60
2023/09/26 05:16:12;;;;;;;5.20;4.70;;;;;;;;;;5068681;28;20432;-58
2023/09/26 05:18:39;;;;;;;6.25;4.60;;;;;;;;;;5069933;28;20457;-57
2023/09/26 05:21:06;;;;;;;7.40;4.72;;;;;;;;;;5069422;28;20415;-59
2023/09/26 05:23:33;;;;;;;5.70;4.45;;;;;;;;;;5071996;28;20414;-57
2023/09/26 05:26:06;;;;;;;6.85;4.85;;;;;;;;;;5088975;28;20407;-60
2023/09/26 05:28:33;;;;;;;6.38;4.60;;;;;;;;;;5088984;28;20396;-61
2023/09/26 05:31:00;;;;;;;5.90;4.88;;;;;;;;;;5084483;28;20403;-59
2023/09/26 05:33:27;;;;;;;5.97;4.97;;;;;;;;;;5084583;28;20432;-61
2023/09/26 05:35:54;;;;;;;7.65;4.97;;;;;;;;;;5087696;28;20463;-61
2023/09/26 05:38:21;;;;;;;7.15;5.00;;;;;;;;;;5085995;28;20473;-61
2023/09/26 05:40:48;;;;;;;6.32;4.93;;;;;;;;;;5083769;28;20479;-58
2023/09/26 05:43:17;;;;;;;6.82;4.97;;;;;;;;;;5083183;28;20414;-58
2023/09/26 05:45:44;;;;;;;7.15;4.80;;;;;;;;;;5079614;28;20414;-60
2023/09/26 05:48:11;;;;;;;6.50;4.87;;;;;;;;;;5082809;28;20438;-60
2023/09/26 05:50:38;;;;;;;8.48;4.80;;;;;;;;;;5081007;28;20895;-60
2023/09/26 05:53:05;;;;;;;11.32;4.80;;;;;;;;;;5081131;28;20455;-59
2023/09/26 05:55:32;;;;;;;5.93;4.38;;;;;;;;;;5085046;28;20483;-58
2023/09/26 05:57:59;;;;;;;6.13;4.40;;;;;;;;;;5082789;28;20462;-60
2023/09/26 06:00:28;;;;;;;6.97;4.90;;;;;;;;;;5081621;28;20407;-59
2023/09/26 06:02:55;;;;;;;6.40;4.53;;;;;;;;;;5083265;28;20470;-60
2023/09/26 06:05:22;;;;;;;6.85;4.65;;;;;;;;;;5083372;28;20414;-60
2023/09/26 06:07:51;;;;;;;6.45;4.70;;;;;;;;;;5080469;28;20410;-60
2023/09/26 06:10:19;;;;;;;5.57;4.50;;;;;;;;;;5083274;28;20410;-59
2023/09/26 06:12:46;;;;;;;7.00;4.75;;;;;;;;;;5081414;28;20421;-59
2023/09/26 06:15:13;;;;;;;6.28;4.55;;;;;;;;;;5082973;28;20405;-58
2023/09/26 06:17:41;;;;;;;6.93;4.68;;;;;;;;;;5084546;28;20402;-61
2023/09/26 06:20:10;;;;;;;5.80;4.55;;;;;;;;;;5084467;28;20505;-62
2023/09/26 06:22:37;;;;;;;6.20;4.20;;;;;;;;;;5084873;28;20979;-61
2023/09/26 06:25:04;;;;;;;6.33;4.27;;;;;;;;;;5083786;28;20498;-61
2023/09/26 06:27:34;;;;;;;6.47;4.53;;;;;;;;;;5082359;28;20440;-61
2023/09/26 06:30:01;;;;;;;6.70;4.20;;;;;;;;;;5080652;28;20419;-61
2023/09/26 06:32:28;;;;;;;5.70;4.30;;;;;;;;;;5081069;28;20808;-60
2023/09/26 06:34:59;;;;;;;5.72;4.20;;;;;;;;;;5080465;28;20408;-62
2023/09/26 06:37:26;;;;;;;5.25;3.70;;;;;;;;;;5081573;28;20818;-61
2023/09/26 06:39:53;;;;;;;4.78;3.63;;;;;;;;;;5079547;28;20468;-60
2023/09/26 06:42:20;;;;;;;6.70;3.83;;;;;;;;;;5082757;28;20426;-60
2023/09/26 06:44:49;;;;;;;6.57;4.20;;;;;;;;;;5082195;28;21064;-62
2023/09/26 06:47:17;;;;;;;4.53;4.03;;;;;;;;;;5071710;28;20443;-60
2023/09/26 06:49:46;;;;;;;6.25;3.97;;;;;;;;;;5071577;28;20955;-60
2023/09/26 06:52:15;;;;;;;5.82;4.35;;;;;;;;;;5071605;28;20459;-60
2023/09/26 06:54:42;;;;;;;7.10;3.90;;;;;;;;;;5079487;28;21192;-61
2023/09/26 06:57:09;;;;;;;6.57;3.75;;;;;;;;;;5086748;28;20405;-61
2023/09/26 06:59:36;;;;;;;5.15;3.75;;;;;;;;;;5081120;28;20499;-61
2023/09/26 07:02:03;;;;;;;8.73;4.10;;;;;;;;;;5080483;28;20849;-59
2023/09/26 07:04:30;;;;;;;5.40;3.70;;;;;;;;;;5080337;28;20399;-61
2023/09/26 07:06:59;;;;;;;6.60;4.10;;;;;;;;;;5081346;28;20415;-61
2023/09/26 07:09:27;;;;;;;6.77;3.77;;;;;;;;;;5082863;28;20541;-62
2023/09/26 07:11:55;;;;;;;6.38;3.60;;;;;;;;;;5081066;28;20443;-62
2023/09/26 07:14:22;;;;;;;4.75;3.40;;;;;;;;;;5081735;28;20426;-61
2023/09/26 07:16:50;;;;;;;5.15;3.60;;;;;;;;;;5079594;28;20419;-64
2023/09/26 07:19:17;;;;;;;4.95;3.42;;;;;;;;;;5084961;28;20557;-61
2023/09/26 07:21:44;;;;;;;5.70;3.55;;;;;;;;;;5078909;28;20425;-61
2023/09/26 07:24:11;;;;;;;5.87;3.60;;;;;;;;;;5081521;28;20471;-62
2023/09/26 07:26:40;;;;;;;7.00;3.55;;;;;;;;;;5082092;28;20801;-61
2023/09/26 07:29:09;;;;;;;5.18;3.33;;;;;;;;;;5077903;28;20411;-61
2023/09/26 07:31:36;;;;;;;4.88;3.40;;;;;;;;;;5081844;28;20760;-61
2023/09/26 07:34:03;;;;;;;5.13;3.38;;;;;;;;;;5080028;28;20495;-60
2023/09/26 07:36:32;;;;;;;5.03;3.40;;;;;;;;;;5079190;28;20415;-60
2023/09/26 07:38:59;;;;;;;4.13;3.10;;;;;;;;;;5080478;28;20801;-60
2023/09/26 07:41:26;;;;;;;6.18;3.35;;;;;;;;;;5080891;28;20422;-62
2023/09/26 07:43:54;;;;;;;5.70;3.10;;;;;;;;;;5081847;28;20409;-61
2023/09/26 07:46:21;;;;;;;5.85;3.50;;;;;;;;;;5080481;28;20990;-61
2023/09/26 07:48:49;;;;;;;4.55;3.30;;;;;;;;;;5078228;28;20806;-64
2023/09/26 07:51:16;;;;;;;5.60;3.43;;;;;;;;;;5081633;28;20446;-60
2023/09/26 07:53:43;;;;;;;3.57;3.23;;;;;;;;;;5078297;28;20442;-59
2023/09/26 07:56:11;;;;;;;3.40;3.10;;;;;;;;;;5085525;28;20421;-61
2023/09/26 07:58:38;;;;;;;4.45;3.30;;;;;;;;;;5078923;28;20430;-63
2023/09/26 08:01:08;;;;;;;4.00;3.33;;;;;;;;;;5081213;28;20489;-59
2023/09/26 08:03:35;;;;;;;4.82;3.10;;;;;;;;;;5082560;28;20429;-59
2023/09/26 08:06:02;;;;;;;4.38;3.08;;;;;;;;;;5079932;28;20410;-58
2023/09/26 08:08:30;;;;;;;4.55;3.30;;;;;;;;;;5078189;28;20407;-62
2023/09/26 08:10:57;;;;;;;4.85;3.17;;;;;;;;;;5080761;28;20806;-60
2023/09/26 08:13:24;;;;;;;4.67;3.33;;;;;;;;;;5081868;28;20406;-59
2023/09/26 08:15:52;;;;;;;5.82;3.28;;;;;;;;;;5081774;28;20422;-60
2023/09/26 08:18:22;;;;;;;7.10;3.17;;;;;;;;;;5079165;28;20410;-61
2023/09/26 08:20:49;;;;;;;4.07;3.10;;;;;;;;;;5080443;28;20434;-61
2023/09/26 08:23:17;;;;;;;7.45;3.42;;;;;;;;;;5077315;28;20885;-61
2023/09/26 08:25:45;;;;;;;5.17;3.33;;;;;;;;;;5082667;28;20410;-62
2023/09/26 08:28:11;;;;;;;6.63;3.30;;;;;;;;;;5077090;28;20424;-62
2023/09/26 08:30:38;;;;;;;5.07;3.30;;;;;;;;;;5082716;28;20900;-61
2023/09/26 08:33:06;;;;;;;5.40;3.10;;;;;;;;;;5076844;28;20552;-62
2023/09/26 08:35:34;;;;;;;4.20;2.90;;;;;;;;;;5080184;28;20414;-63
2023/09/26 08:38:01;;;;;;;5.22;3.13;;;;;;;;;;5081037;28;20419;-63
2023/09/26 08:40:29;;;;;;;3.75;3.40;;;;;;;;;;5085132;28;20496;-62
2023/09/26 08:42:57;;;;;;;5.30;3.20;;;;;;;;;;5081771;28;20944;-61
2023/09/26 08:45:25;;;;;;;5.03;3.35;;;;;;;;;;5081427;28;20943;-62
2023/09/26 08:47:54;;;;;;;5.03;3.08;;;;;;;;;;5077471;28;20409;-62
2023/09/26 08:50:21;;;;;;;5.63;3.20;;;;;;;;;;5082040;28;20558;-60
2023/09/26 08:52:50;;;;;;;5.28;3.33;;;;;;;;;;5077179;28;20431;-60
2023/09/26 08:55:17;;;;;;;7.13;3.33;;;;;;;;;;5080093;28;20406;-61
2023/09/26 08:57:46;;;;;;;5.15;3.05;;;;;;;;;;5077603;28;20442;-60
2023/09/26 09:00:13;;;;;;;5.00;3.00;;;;;;;;;;5081282;28;20462;-58
2023/09/26 09:02:40;;;;;;;5.80;3.50;;;;;;;;;;5084774;28;20453;-59
2023/09/26 09:05:09;;;;;;;5.60;3.20;;;;;;;;;;5088382;28;20888;-60
2023/09/26 09:07:38;;;;;;;5.05;3.10;;;;;;;;;;5094571;28;20421;-61
2023/09/26 09:10:08;;;;;;;4.18;3.10;;;;;;;;;;5086728;28;20459;-60
2023/09/26 09:12:37;;;;;;;3.67;2.88;;;;;;;;;;5088915;28;20767;-61
2023/09/26 09:15:06;;;;;;;4.88;3.10;;;;;;;;;;5086515;28;20782;-61
2023/09/26 09:17:40;;;;;;;4.70;3.05;;;;;;;;;;5089453;28;20419;-58
2023/09/26 09:20:08;;;;;;;4.90;2.97;;;;;;;;;;5073084;28;20403;-58
2023/09/26 09:22:35;;;;;;;4.37;2.90;;;;;;;;;;5072763;28;20442;-60
2023/09/26 09:25:02;;;;;;;6.40;3.20;;;;;;;;;;5082162;28;20472;-59
2023/09/26 09:27:31;;;;;;;5.13;3.00;;;;;;;;;;5084279;28;20415;-60
2023/09/26 09:30:06;;;;;;;4.60;2.90;;;;;;;;;;5081957;28;20418;-58
2023/09/26 09:32:33;;;;;;;4.40;3.58;;;;;;;;;;5080935;28;20419;-57
2023/09/26 09:35:00;;;;;;;7.78;4.70;;;;;;;;;;5082499;28;20417;-60
2023/09/26 09:37:27;;;;;;;4.38;2.70;;;;;;;;;;5082626;28;20410;-65
2023/09/26 09:39:54;;;;;;;4.70;2.75;;;;;;;;;;5083454;28;20416;-62
2023/09/26 09:42:22;;;;;;;4.32;2.72;;;;;;;;;;5079308;28;20423;-62
2023/09/26 09:44:50;;;;;;;3.30;2.60;;;;;;;;;;5078232;28;20415;-62
2023/09/26 09:47:21;;;;;;;4.38;2.58;;;;;;;;;;5082019;28;20953;-62
2023/09/26 09:49:48;;;;;;;7.60;3.10;;;;;;;;;;5080372;28;20509;-62
2023/09/26 09:52:17;;;;;;;4.40;2.60;;;;;;;;;;5078257;28;20417;-63
2023/09/26 09:54:45;;;;;;;4.15;2.72;;;;;;;;;;5082145;28;20413;-63
2023/09/26 09:57:14;;;;;;;4.10;2.45;;;;;;;;;;5085377;28;20938;-64
2023/09/26 09:59:42;;;;;;;3.15;2.60;;;;;;;;;;5081028;28;20416;-64
2023/09/26 10:02:15;;;;;;;5.28;3.08;;;;;;;;;;5080964;28;20945;-64
2023/09/26 10:04:42;;;;;;;3.47;2.38;;;;;;;;;;5084133;28;20444;-63
2023/09/26 10:07:10;;;;;;;3.95;2.60;;;;;;;;;;5080732;28;20416;-64
2023/09/26 10:09:37;;;;;;;5.07;2.80;;;;;;;;;;5081153;28;20407;-62
2023/09/26 10:12:05;;;;;;;6.82;2.80;;;;;;;;;;5082485;28;20405;-64
2023/09/26 10:14:33;;;;;;;4.75;2.50;;;;;;;;;;5081910;28;20895;-63
2023/09/26 10:17:02;;;;;;;4.43;2.55;;;;;;;;;;5080540;28;20412;-64
2023/09/26 10:19:31;;;;;;;4.65;2.75;;;;;;;;;;5081670;28;20896;-62
2023/09/26 10:22:13;;;;;;;4.90;2.63;;;;;;;;;;5082866;28;20426;-63
2023/09/26 10:24:46;;;;;;;3.92;2.00;;;;;;;;;;5085119;28;20456;-61
2023/09/26 10:27:13;;;;;;;2.78;2.20;;;;;;;;;;5084198;28;20423;-61
2023/09/26 10:29:39;;;;;;;3.22;1.95;;;;;;;;;;5080474;28;20407;-62
2023/09/26 10:32:08;;;;;;;5.97;2.45;;;;;;;;;;5083204;28;20408;-60
2023/09/26 10:34:37;;;;;;;3.42;2.22;;;;;;;;;;5080817;28;20414;-60
2023/09/26 10:37:07;;;;;;;4.03;2.43;;;;;;;;;;5079415;28;20434;-60
2023/09/26 10:39:35;;;;;;;3.70;2.30;;;;;;;;;;5083175;28;20413;-60
2023/09/26 10:42:03;;;;;;;3.10;2.10;;;;;;;;;;5071398;28;20496;-61
2023/09/26 10:44:30;;;;;;;3.67;2.47;;;;;;;;;;5074344;28;20860;-62
2023/09/26 10:46:57;;;;;;;3.58;2.33;;;;;;;;;;5080063;28;20469;-63
2023/09/26 10:49:25;;;;;;;2.90;2.10;;;;;;;;;;5081488;28;20441;-62
2023/09/26 10:51:53;;;;;;;3.33;2.03;;;;;;;;;;5082343;28;20495;-62
2023/09/26 10:54:20;;;;;;;2.30;1.80;;;;;;;;;;5079851;28;20405;-60
2023/09/26 10:56:48;;;;;;;2.95;2.03;;;;;;;;;;5083434;28;20776;-63
2023/09/26 10:59:18;;;;;;;3.05;1.65;;;;;;;;;;5080211;28;20497;-61
2023/09/26 11:01:45;;;;;;;3.60;1.90;;;;;;;;;;5087761;28;20509;-62
2023/09/26 11:04:12;;;;;;;3.75;2.00;;;;;;;;;;5087149;28;20408;-62
2023/09/26 11:06:40;;;;;;;2.88;1.65;;;;;;;;;;5086858;28;20429;-63
2023/09/26 11:09:09;;;;;;;2.67;1.65;;;;;;;;;;5082007;28;20882;-62
2023/09/26 11:11:36;;;;;;;3.22;1.60;;;;;;;;;;5083154;28;20409;-62
2023/09/26 11:14:03;;;;;;;3.45;1.80;;;;;;;;;;5083893;28;20407;-61
2023/09/26 11:16:31;;;;;;;2.13;1.80;;;;;;;;;;5082448;28;20461;-62
2023/09/26 11:19:00;;;;;;;3.70;1.70;;;;;;;;;;5082778;28;21320;-62
2023/09/26 11:21:27;;;;;;;1.92;1.63;;;;;;;;;;5085904;28;20413;-63
2023/09/26 11:23:54;;;;;;;3.97;1.85;;;;;;;;;;5080313;28;20477;-62
2023/09/26 11:26:23;;;;;;;3.40;1.88;;;;;;;;;;5077260;28;20404;-61
2023/09/26 11:28:51;;;;;;;2.50;1.50;;;;;;;;;;5082693;28;20827;-62
2023/09/26 11:31:18;;;;;;;2.95;1.77;;;;;;;;;;5078366;28;21174;-58
2023/09/26 11:33:46;;;;;;;3.65;1.52;;;;;;;;;;5080104;28;20421;-60
2023/09/26 11:36:13;;;;;;;2.03;1.50;;;;;;;;;;5081834;28;20489;-60
2023/09/26 11:38:47;;;;;;;3.50;1.77;;;;;;;;;;5079112;28;20971;-61
2023/09/26 11:41:14;;;;;;;4.10;1.80;;;;;;;;;;5079331;28;20439;-64
2023/09/26 11:43:47;;;;;;;2.08;1.58;;;;;;;;;;5080961;28;20449;-60
2023/09/26 11:46:14;;;;;;;3.20;2.90;;;;;;;;;;5081814;28;20496;-60
2023/09/26 11:48:42;;;;;;;2.33;1.67;;;;;;;;;;5078887;28;20409;-61
2023/09/26 11:51:09;;;;;;;2.37;1.60;;;;;;;;;;5084822;28;20785;-61
2023/09/26 11:53:36;;;;;;;2.90;1.65;;;;;;;;;;5081754;28;20398;-60
2023/09/26 11:56:06;;;;;;;2.30;1.50;;;;;;;;;;5078484;28;20964;-58
2023/09/26 11:58:33;;;;;;;2.60;1.52;;;;;;;;;;5082213;28;20912;-59
2023/09/26 12:01:02;;;;;;;2.05;1.70;;;;;;;;;;5079372;28;20418;-63
2023/09/26 12:03:29;;;;;;;2.42;1.42;;;;;;;;;;5082623;28;20430;-62
2023/09/26 12:05:56;;;;;;;3.15;1.40;;;;;;;;;;5080176;28;20465;-63
2023/09/26 12:08:25;;;;;;;3.63;1.50;;;;;;;;;;5083962;28;20409;-63
2023/09/26 12:10:52;;;;;;;3.77;1.70;;;;;;;;;;5080258;28;20492;-61
2023/09/26 12:13:19;;;;;;;2.88;1.65;;;;;;;;;;5080081;28;20457;-62
2023/09/26 12:15:46;;;;;;;2.20;1.42;;;;;;;;;;5081331;28;20484;-62
2023/09/26 12:18:15;;;;;;;2.00;1.40;;;;;;;;;;5078238;28;20537;-62
2023/09/26 12:20:42;;;;;;;2.20;1.40;;;;;;;;;;5081686;28;20950;-63
2023/09/26 12:23:10;;;;;;;3.53;1.33;;;;;;;;;;5078786;28;20538;-62
2023/09/26 12:25:37;;;;;;;2.72;1.30;;;;;;;;;;5085663;28;20414;-62
2023/09/26 12:28:04;;;;;;;2.25;1.45;;;;;;;;;;5080774;28;20469;-62
2023/09/26 12:30:31;;;;;;;2.85;1.50;;;;;;;;;;5080157;28;20411;-61
2023/09/26 12:32:59;;;;;;;1.70;1.35;;;;;;;;;;5082541;28;20409;-61
2023/09/26 12:35:27;;;;;;;2.85;1.60;;;;;;;;;;5084085;28;20481;-62
2023/09/26 12:37:54;;;;;;;3.13;1.60;;;;;;;;;;5083822;28;20412;-62
2023/09/26 12:40:21;;;;;;;1.80;1.30;;;;;;;;;;5085916;28;20420;-62
2023/09/26 12:42:48;;;;;;;2.50;1.50;;;;;;;;;;5086648;28;20907;-62
2023/09/26 12:45:15;;;;;;;1.77;1.40;;;;;;;;;;5075262;28;20460;-62
2023/09/26 12:47:42;;;;;;;3.67;1.60;;;;;;;;;;5074386;28;20704;-63
2023/09/26 12:50:09;;;;;;;1.77;1.52;;;;;;;;;;5074484;28;20412;-61
2023/09/26 12:52:38;;;;;;;2.45;1.45;;;;;;;;;;5074613;28;20804;-62
2023/09/26 12:55:05;;;;;;;2.40;1.40;;;;;;;;;;5084758;28;20461;-62
2023/09/26 12:57:33;;;;;;;1.85;1.45;;;;;;;;;;5084927;28;20455;-63
2023/09/26 13:00:00;;;;;;;2.83;1.63;;;;;;;;;;5084672;28;20505;-62
2023/09/26 13:02:27;;;;;;;1.90;1.40;;;;;;;;;;5082547;28;20801;-62
2023/09/26 13:04:55;;;;;;;2.60;1.50;;;;;;;;;;5083634;28;20482;-62
2023/09/26 13:07:22;;;;;;;2.40;1.73;;;;;;;;;;5085396;28;20410;-62
2023/09/26 13:09:50;;;;;;;1.97;1.67;;;;;;;;;;5083721;28;20415;-62
2023/09/26 13:12:17;;;;;;;2.08;1.45;;;;;;;;;;5082705;28;20824;-61
2023/09/26 13:14:45;;;;;;;3.17;1.90;;;;;;;;;;5084473;28;20795;-62
2023/09/26 13:17:12;;;;;;;8.57;7.20;;;;;;;;;;5081253;28;20977;-62
2023/09/26 13:19:40;;;;;;;2.95;1.73;;;;;;;;;;5083858;28;20421;-61
2023/09/26 13:22:07;;;;;;;2.67;1.70;;;;;;;;;;5083903;28;20501;-62
2023/09/26 13:24:35;;;;;;;3.97;1.60;;;;;;;;;;5079449;28;20425;-61
2023/09/26 13:27:03;;;;;;;2.90;1.43;;;;;;;;;;5082291;28;20498;-60
2023/09/26 13:29:30;;;;;;;2.63;1.63;;;;;;;;;;5086455;28;20418;-66
2023/09/26 13:31:57;;;;;;;2.38;1.55;;;;;;;;;;5083640;28;20900;-65
2023/09/26 13:34:24;;;;;;;2.23;1.63;;;;;;;;;;5083870;28;20409;-63
2023/09/26 13:36:51;;;;;;;2.97;1.50;;;;;;;;;;5081195;28;20926;-64
2023/09/26 13:39:19;;;;;;;3.35;1.77;;;;;;;;;;5083558;28;20412;-63
2023/09/26 13:41:46;;;;;;;4.20;1.97;;;;;;;;;;5081853;28;20939;-61
2023/09/26 13:44:14;;;;;;;2.35;1.60;;;;;;;;;;5082641;28;20468;-63
2023/09/26 13:46:41;;;;;;;2.80;1.57;;;;;;;;;;5080478;28;20417;-64
2023/09/26 13:49:08;;;;;;;2.15;1.65;;;;;;;;;;5081647;28;20469;-64
2023/09/26 13:51:35;;;;;;;3.15;1.80;;;;;;;;;;5083638;28;21112;-60
2023/09/26 13:54:03;;;;;;;2.17;1.50;;;;;;;;;;5080992;28;20499;-60
2023/09/26 13:56:30;;;;;;;3.80;1.52;;;;;;;;;;5087530;28;20449;-60
2023/09/26 13:58:57;;;;;;;2.70;1.83;;;;;;;;;;5085025;28;20850;-59
2023/09/26 14:01:25;;;;;;;2.30;1.48;;;;;;;;;;5079300;28;20419;-60
2023/09/26 14:03:52;;;;;;;2.75;1.50;;;;;;;;;;5081636;28;20832;-60
2023/09/26 14:06:19;;;;;;;2.38;1.80;;;;;;;;;;5081168;28;20953;-56
2023/09/26 14:08:46;;;;;;;2.33;1.75;;;;;;;;;;5084255;28;20421;-59
2023/09/26 14:11:14;;;;;;;3.33;1.77;;;;;;;;;;5078794;28;21040;-58
2023/09/26 14:13:41;;;;;;;3.33;1.80;;;;;;;;;;5084250;28;20467;-60
2023/09/26 14:16:08;;;;;;;14.95;11.27;;;;;;;;;;5079689;28;20416;-55
2023/09/26 14:18:37;;;;;;;12.87;9.30;;;;;;;;;;5080499;28;20473;-58
2023/09/26 14:21:09;;;;;;;7.65;5.43;;;;;;;;;;5080871;28;20414;-55
2023/09/26 14:23:36;;;;;;;3.90;2.00;;;;;;;;;;5082795;28;20422;-58
2023/09/26 14:26:03;;;;;;;2.63;1.73;;;;;;;;;;5079288;28;20453;-58
2023/09/26 14:28:31;;;;;;;2.83;1.70;;;;;;;;;;5084964;28;20812;-56
2023/09/26 14:30:58;;;;;;;2.85;2.00;;;;;;;;;;5080685;28;20504;-55
2023/09/26 14:33:25;;;;;;;2.90;1.80;;;;;;;;;;5085782;28;20501;-58
2023/09/26 14:35:54;;;;;;;3.05;1.90;;;;;;;;;;5082135;28;20815;-57
2023/09/26 14:38:21;;;;;;;5.13;2.03;;;;;;;;;;5083084;28;20418;-57
2023/09/26 14:40:48;;;;;;;3.75;1.80;;;;;;;;;;5080821;28;20455;-57
2023/09/26 14:43:15;;;;;;;2.40;1.90;;;;;;;;;;5083482;28;20430;-55
2023/09/26 14:45:42;;;;;;;2.75;2.00;;;;;;;;;;5083073;28;20408;-57